Pictou, Canada
Current Conditions -  °F | °C
As of 7:15 PM on Thursday 18 Dec 2014 (Local Time) from CYYG Reporting Station
Rain Showers Rain Showers  
Wind Chill: -1°   Ceiling: 900
Heat Index:   Visibility: 8mi
Dew Point:   Wind: 7mph
Humidity: 93%   Direction: 220°SW
Pressure: 29.37"   Gusts: NA
Location:  45.67°N, 62.7°W
Report Text: CYYG 182315Z 22006KT 8SM -SHRA OVC009 02/01 A2937 RMK SF8 SLP946
Loading
Personal Weather Stations






























Interactive Weather Map New forecast layout! Learn more

10-Day Weather Forecast

Advertisements
Track Severe Weather on mobile